createdAt,value
2018-04-26T00:00:07.634Z,2.10
2018-04-26T00:02:35.058Z,1.37
2018-04-26T00:05:02.534Z,1.97
2018-04-26T00:07:29.980Z,1.70
2018-04-26T00:09:57.418Z,1.70
2018-04-26T00:12:24.877Z,1.33
2018-04-26T00:14:52.368Z,1.40
2018-04-26T00:17:19.810Z,1.30
2018-04-26T00:19:47.301Z,1.53
2018-04-26T00:22:14.762Z,2.30
2018-04-26T00:24:42.213Z,1.43
2018-04-26T00:27:09.654Z,1.80
2018-04-26T00:29:37.138Z,1.63
2018-04-26T00:32:04.576Z,1.60
2018-04-26T00:34:32.061Z,1.50
2018-04-26T00:36:59.511Z,1.60
2018-04-26T00:39:26.945Z,1.40
2018-04-26T00:41:54.447Z,2.00
2018-04-26T00:44:21.882Z,2.20
2018-04-26T00:46:49.367Z,1.40
2018-04-26T00:49:16.813Z,2.27
2018-04-26T00:51:56.164Z,1.47
2018-04-26T00:54:23.626Z,2.07
2018-04-26T00:56:51.073Z,1.77
2018-04-26T00:59:18.519Z,1.77
2018-04-26T01:01:46.007Z,1.60
2018-04-26T01:04:13.455Z,2.23
2018-04-26T01:06:40.897Z,2.00
2018-04-26T01:09:08.339Z,1.70
2018-04-26T01:11:36.541Z,1.77
2018-04-26T01:14:04.108Z,2.00
2018-04-26T01:16:31.530Z,2.00
2018-04-26T01:18:59.769Z,2.10
2018-04-26T01:21:27.208Z,1.70
2018-04-26T01:23:54.675Z,1.60
2018-04-26T01:26:22.164Z,2.20
2018-04-26T01:28:49.610Z,2.70
2018-04-26T01:31:17.051Z,2.63
2018-04-26T01:33:44.511Z,2.27
2018-04-26T01:36:11.961Z,2.30
2018-04-26T01:38:40.183Z,2.90
2018-04-26T01:41:08.566Z,2.23
2018-04-26T01:43:36.024Z,2.67
2018-04-26T01:46:03.486Z,3.03
2018-04-26T01:48:30.943Z,3.10
2018-04-26T01:50:58.383Z,4.60
2018-04-26T01:53:25.839Z,3.17
2018-04-26T01:55:53.334Z,3.30
2018-04-26T01:58:20.789Z,3.67
2018-04-26T02:00:48.234Z,3.83
2018-04-26T02:03:15.679Z,3.63
2018-04-26T02:05:43.110Z,3.40
2018-04-26T02:08:10.550Z,3.57
2018-04-26T02:10:37.994Z,3.77
2018-04-26T02:13:05.428Z,3.30
2018-04-26T02:15:32.881Z,3.73
2018-04-26T02:18:00.355Z,3.87
2018-04-26T02:20:27.794Z,3.10
2018-04-26T02:22:56.007Z,4.00
2018-04-26T02:25:23.510Z,4.13
2018-04-26T02:27:50.942Z,4.20
2018-04-26T02:30:18.385Z,4.10
2018-04-26T02:32:45.826Z,3.40
2018-04-26T02:35:14.046Z,4.43
2018-04-26T02:37:41.491Z,3.83
2018-04-26T02:40:08.955Z,3.77
2018-04-26T02:42:36.395Z,4.00
2018-04-26T02:45:03.834Z,4.20
2018-04-26T02:47:32.071Z,3.97
2018-04-26T02:49:59.526Z,3.90
2018-04-26T02:52:26.971Z,4.13
2018-04-26T02:54:54.415Z,4.10
2018-04-26T02:57:21.910Z,3.57
2018-04-26T02:59:49.375Z,4.00
2018-04-26T03:02:16.824Z,4.37
2018-04-26T03:04:44.286Z,4.07
2018-04-26T03:07:11.758Z,4.63
2018-04-26T03:09:39.199Z,4.20
2018-04-26T03:12:06.649Z,4.80
2018-04-26T03:14:34.115Z,4.40
2018-04-26T03:17:01.579Z,4.50
2018-04-26T03:19:29.067Z,4.77
2018-04-26T03:21:56.515Z,4.57
2018-04-26T03:24:23.947Z,4.90
2018-04-26T03:26:51.390Z,4.83
2018-04-26T03:29:19.598Z,5.30
2018-04-26T03:31:47.095Z,4.27
2018-04-26T03:34:14.534Z,4.20
2018-04-26T03:36:42.010Z,4.73
2018-04-26T03:39:09.443Z,5.20
2018-04-26T03:41:36.881Z,4.73
2018-04-26T03:44:05.095Z,4.80
2018-04-26T03:46:32.582Z,4.83
2018-04-26T03:49:00.136Z,5.40
2018-04-26T03:51:27.575Z,5.03
2018-04-26T03:53:55.063Z,5.30
2018-04-26T03:56:22.521Z,4.83
2018-04-26T03:58:49.961Z,5.53
2018-04-26T04:01:29.391Z,5.83
2018-04-26T04:04:08.760Z,5.37
2018-04-26T04:06:36.214Z,5.00
2018-04-26T04:09:03.668Z,4.40
2018-04-26T04:11:31.122Z,4.53
2018-04-26T04:13:58.598Z,4.47
2018-04-26T04:16:26.042Z,4.37
2018-04-26T04:18:53.495Z,3.80
2018-04-26T04:21:20.978Z,4.07
2018-04-26T04:23:48.434Z,4.40
2018-04-26T04:26:15.898Z,4.57
2018-04-26T04:28:43.371Z,4.70
2018-04-26T04:31:10.821Z,5.10
2018-04-26T04:33:38.262Z,5.43
2018-04-26T04:36:05.706Z,5.80
2018-04-26T04:38:33.206Z,5.90
2018-04-26T04:41:00.645Z,5.70
2018-04-26T04:43:28.087Z,5.87
2018-04-26T04:45:56.385Z,5.23
2018-04-26T04:48:23.839Z,5.70
2018-04-26T04:50:52.059Z,5.97
2018-04-26T04:53:19.484Z,5.33
2018-04-26T04:55:46.931Z,5.23
2018-04-26T04:58:14.379Z,4.60
2018-04-26T05:00:42.604Z,3.53
2018-04-26T05:03:10.077Z,3.40
2018-04-26T05:05:37.535Z,3.50
2018-04-26T05:08:04.962Z,3.33
2018-04-26T05:10:32.457Z,3.60
2018-04-26T05:13:00.451Z,3.33
2018-04-26T05:15:27.892Z,3.80
2018-04-26T05:17:55.351Z,4.43
2018-04-26T05:20:22.812Z,4.90
2018-04-26T05:22:50.270Z,4.40
2018-04-26T05:25:17.737Z,4.43
2018-04-26T05:27:45.178Z,4.90
2018-04-26T05:30:12.615Z,4.90
2018-04-26T05:32:40.843Z,5.20
2018-04-26T05:35:08.300Z,5.20
2018-04-26T05:37:35.748Z,5.40
2018-04-26T05:40:03.219Z,4.83
2018-04-26T05:42:30.735Z,4.77
2018-04-26T05:44:58.940Z,5.07
2018-04-26T05:47:26.430Z,4.53
2018-04-26T05:49:54.576Z,5.03
2018-04-26T05:52:22.062Z,4.70
2018-04-26T05:54:49.519Z,4.40
2018-04-26T05:57:16.972Z,4.67
2018-04-26T05:59:44.415Z,5.83
2018-04-26T06:02:11.866Z,5.00
2018-04-26T06:04:39.308Z,4.63
2018-04-26T06:07:07.558Z,4.30
2018-04-26T06:09:35.015Z,4.20
2018-04-26T06:12:02.462Z,3.50
2018-04-26T06:14:29.903Z,3.93
2018-04-26T06:16:57.441Z,3.10
2018-04-26T06:19:24.829Z,3.30
2018-04-26T06:21:52.265Z,2.83
2018-04-26T06:24:20.522Z,2.80
2018-04-26T06:26:48.059Z,2.93
2018-04-26T06:29:15.507Z,2.60
2018-04-26T06:31:43.279Z,3.17
2018-04-26T06:34:10.755Z,2.90
2018-04-26T06:36:38.215Z,2.80
2018-04-26T06:39:05.653Z,2.37
2018-04-26T06:41:33.090Z,2.63
2018-04-26T06:44:00.531Z,2.83
2018-04-26T06:46:28.754Z,3.20
2018-04-26T06:48:56.202Z,2.83
2018-04-26T06:51:23.641Z,3.10
2018-04-26T06:53:51.854Z,2.60
2018-04-26T06:56:19.341Z,3.13
2018-04-26T06:58:46.794Z,2.80
2018-04-26T07:01:14.291Z,4.03
2018-04-26T07:03:41.739Z,3.50
2018-04-26T07:06:09.179Z,3.60
2018-04-26T07:08:36.628Z,3.30
2018-04-26T07:11:04.162Z,3.23
2018-04-26T07:13:31.666Z,3.37
2018-04-26T07:15:59.106Z,3.20
2018-04-26T07:18:26.543Z,3.57
2018-04-26T07:20:54.797Z,3.60
2018-04-26T07:23:22.234Z,4.37
2018-04-26T07:25:49.670Z,4.20
2018-04-26T07:28:17.118Z,4.33
2018-04-26T07:30:44.695Z,4.60
2018-04-26T07:33:12.139Z,4.30
2018-04-26T07:35:39.583Z,4.30
2018-04-26T07:38:07.823Z,4.53
2018-04-26T07:40:35.271Z,3.60
2018-04-26T07:43:02.712Z,4.30
2018-04-26T07:45:30.217Z,4.63
2018-04-26T07:47:57.658Z,4.07
2018-04-26T07:50:25.199Z,3.87
2018-04-26T07:52:52.622Z,4.80
2018-04-26T07:55:20.063Z,5.30
2018-04-26T07:57:47.507Z,5.23
2018-04-26T08:00:14.954Z,5.90
2018-04-26T08:02:42.399Z,6.77
2018-04-26T08:05:09.841Z,6.33
2018-04-26T08:07:38.038Z,5.80
2018-04-26T08:10:05.481Z,6.40
2018-04-26T08:12:33.681Z,6.57
2018-04-26T08:15:01.144Z,6.50
2018-04-26T08:17:28.627Z,6.83
2018-04-26T08:19:56.065Z,6.50
2018-04-26T08:22:23.515Z,6.60
2018-04-26T08:24:51.028Z,5.63
2018-04-26T08:27:18.486Z,6.03
2018-04-26T08:29:45.934Z,5.63
2018-04-26T08:32:13.475Z,6.23
2018-04-26T08:34:40.964Z,5.67
2018-04-26T08:37:08.403Z,5.70
2018-04-26T08:39:35.847Z,5.37
2018-04-26T08:42:03.292Z,5.37
2018-04-26T08:44:31.499Z,5.00
2018-04-26T08:46:59.001Z,4.97
2018-04-26T08:49:26.524Z,5.10
2018-04-26T08:51:54.088Z,6.47
2018-04-26T08:54:21.574Z,5.30
2018-04-26T08:56:49.023Z,6.10
2018-04-26T08:59:16.574Z,5.60
2018-04-26T09:01:44.007Z,5.77
2018-04-26T09:04:12.246Z,6.73
2018-04-26T09:06:39.770Z,6.30
2018-04-26T09:09:07.159Z,5.20
2018-04-26T09:11:34.595Z,5.23
2018-04-26T09:14:02.036Z,4.60
2018-04-26T09:16:30.239Z,5.27
2018-04-26T09:18:57.689Z,4.30
2018-04-26T09:21:25.188Z,4.87
2018-04-26T09:23:52.650Z,4.23
2018-04-26T09:26:20.091Z,5.00
2018-04-26T09:28:47.540Z,4.47
2018-04-26T09:31:14.979Z,5.07
2018-04-26T09:33:43.186Z,4.37
2018-04-26T09:36:10.675Z,4.23
2018-04-26T09:38:38.202Z,4.20
2018-04-26T09:41:05.567Z,3.50
2018-04-26T09:43:33.008Z,2.70
2018-04-26T09:46:01.230Z,2.30
2018-04-26T09:48:28.691Z,2.10
2018-04-26T09:50:56.232Z,1.57
2018-04-26T09:53:23.662Z,1.50
2018-04-26T09:55:51.863Z,1.00
2018-04-26T09:58:19.326Z,1.00
2018-04-26T10:00:46.763Z,1.20
2018-04-26T10:03:14.969Z,1.60
2018-04-26T10:05:48.151Z,2.30
2018-04-26T10:08:15.646Z,3.17
2018-04-26T10:10:43.212Z,3.73
2018-04-26T10:13:10.664Z,3.27
2018-04-26T10:15:38.106Z,3.80
2018-04-26T10:18:05.543Z,3.77
2018-04-26T10:20:33.762Z,4.07
2018-04-26T10:23:01.208Z,4.73
2018-04-26T10:25:28.647Z,5.33
2018-04-26T10:27:56.895Z,5.93
2018-04-26T10:30:24.443Z,5.80
2018-04-26T10:32:51.879Z,6.40
2018-04-26T10:35:19.364Z,6.00
2018-04-26T10:37:46.913Z,5.90
2018-04-26T10:40:14.390Z,3.50
2018-04-26T10:42:41.857Z,2.53
2018-04-26T10:45:09.310Z,2.80
2018-04-26T10:47:36.783Z,2.90
2018-04-26T10:50:04.248Z,2.80
2018-04-26T10:52:31.666Z,2.93
2018-04-26T10:54:59.133Z,3.83
2018-04-26T10:57:26.587Z,4.13
2018-04-26T10:59:54.025Z,4.83
2018-04-26T11:02:22.255Z,5.37
2018-04-26T11:04:49.793Z,5.97
2018-04-26T11:07:17.287Z,6.40
2018-04-26T11:09:44.793Z,5.67
2018-04-26T11:12:13.022Z,6.80
2018-04-26T11:14:40.490Z,7.10
2018-04-26T11:17:07.928Z,5.57
2018-04-26T11:19:35.378Z,6.20
2018-04-26T11:22:02.826Z,5.57
2018-04-26T11:24:30.407Z,5.60
2018-04-26T11:26:57.806Z,7.17
2018-04-26T11:29:25.355Z,6.10
2018-04-26T11:31:52.792Z,7.60
2018-04-26T11:34:20.221Z,6.43
2018-04-26T11:36:48.432Z,6.10
2018-04-26T11:39:15.871Z,5.40
2018-04-26T11:41:44.083Z,5.50
2018-04-26T11:44:11.560Z,6.27
2018-04-26T11:46:39.090Z,6.50
2018-04-26T11:49:06.451Z,6.57
2018-04-26T11:51:33.892Z,6.57
2018-04-26T11:54:02.090Z,6.50
2018-04-26T11:56:29.534Z,7.47
2018-04-26T11:58:57.753Z,8.30
2018-04-26T12:01:25.192Z,7.80
2018-04-26T12:03:52.642Z,8.73
2018-04-26T12:06:20.137Z,7.97
2018-04-26T12:08:47.681Z,6.90
2018-04-26T12:11:15.106Z,6.50
2018-04-26T12:13:43.349Z,6.40
2018-04-26T12:16:10.812Z,7.13
2018-04-26T12:18:38.358Z,8.20
2018-04-26T12:21:05.692Z,5.60
2018-04-26T12:23:33.142Z,5.10
2018-04-26T12:26:01.374Z,5.67
2018-04-26T12:28:28.839Z,5.60
2018-04-26T12:30:56.376Z,6.03
2018-04-26T12:33:23.810Z,6.10
2018-04-26T12:35:51.245Z,5.83
2018-04-26T12:38:20.206Z,5.43
2018-04-26T12:40:47.654Z,4.67
2018-04-26T12:43:15.132Z,5.17
2018-04-26T12:45:42.570Z,4.63
2018-04-26T12:48:10.023Z,3.67
2018-04-26T12:50:37.454Z,3.43
2018-04-26T12:53:05.645Z,3.47
2018-04-26T12:55:33.873Z,3.97
2018-04-26T12:58:01.310Z,3.30
2018-04-26T13:00:28.782Z,3.40
2018-04-26T13:02:56.205Z,3.10
2018-04-26T13:05:24.445Z,3.93
2018-04-26T13:07:51.926Z,4.30
2018-04-26T13:10:30.322Z,4.10
2018-04-26T13:12:57.770Z,3.90
2018-04-26T13:15:25.212Z,4.07
2018-04-26T13:17:52.695Z,4.20
2018-04-26T13:20:20.138Z,4.40
2018-04-26T13:22:47.578Z,4.17
2018-04-26T13:25:15.022Z,4.73
2018-04-26T13:27:43.260Z,5.40
2018-04-26T13:30:10.728Z,5.00
2018-04-26T13:32:38.178Z,5.17
2018-04-26T13:35:05.640Z,5.83
2018-04-26T13:37:33.195Z,5.37
2018-04-26T13:40:00.647Z,5.80
2018-04-26T13:42:28.088Z,5.50
2018-04-26T13:44:55.543Z,6.27
2018-04-26T13:47:22.991Z,6.00
2018-04-26T13:49:51.210Z,6.80
2018-04-26T13:52:18.635Z,6.80
2018-04-26T13:54:46.867Z,6.83
2018-04-26T13:57:14.307Z,6.77
2018-04-26T13:59:41.738Z,6.90
2018-04-26T14:02:09.962Z,7.37
2018-04-26T14:04:37.430Z,6.90
2018-04-26T14:07:04.887Z,8.20
2018-04-26T14:09:32.331Z,7.40
2018-04-26T14:11:59.781Z,7.30
2018-04-26T14:14:27.243Z,5.17
2018-04-26T14:16:54.726Z,4.80
2018-04-26T14:19:22.209Z,4.40
2018-04-26T14:21:49.654Z,5.50
2018-04-26T14:24:17.092Z,6.00
2018-04-26T14:26:44.582Z,6.07
2018-04-26T14:29:12.115Z,5.50
2018-04-26T14:31:39.568Z,5.40
2018-04-26T14:34:07.013Z,4.30
2018-04-26T14:36:35.230Z,2.80
2018-04-26T14:39:02.681Z,3.30
2018-04-26T14:41:30.120Z,4.40
2018-04-26T14:43:58.335Z,4.83
2018-04-26T14:46:25.798Z,4.20
2018-04-26T14:48:53.242Z,4.13
2018-04-26T14:51:20.678Z,4.40
2018-04-26T14:53:48.903Z,3.77
2018-04-26T14:56:16.349Z,3.77
2018-04-26T14:58:43.786Z,4.30
2018-04-26T15:01:11.227Z,4.83
2018-04-26T15:03:39.587Z,4.40
2018-04-26T15:06:08.530Z,4.50
2018-04-26T15:08:36.033Z,5.17
2018-04-26T15:11:03.499Z,5.73
2018-04-26T15:13:31.055Z,5.90
2018-04-26T15:15:58.516Z,5.17
2018-04-26T15:18:25.954Z,6.20
2018-04-26T15:20:53.393Z,6.27
2018-04-26T15:23:21.610Z,6.87
2018-04-26T15:25:49.061Z,6.83
2018-04-26T15:28:16.535Z,7.10
2018-04-26T15:30:43.999Z,7.30
2018-04-26T15:33:11.456Z,7.47
2018-04-26T15:35:38.917Z,7.13
2018-04-26T15:38:06.375Z,6.73
2018-04-26T15:40:33.818Z,5.90
2018-04-26T15:43:01.307Z,5.63
2018-04-26T15:45:28.751Z,6.03
2018-04-26T15:47:56.236Z,5.20
2018-04-26T15:53:36.990Z,5.40
2018-04-26T15:56:16.428Z,5.60
2018-04-26T16:02:19.609Z,5.10
2018-04-26T16:04:58.817Z,4.90
2018-04-26T16:11:08.839Z,4.43
2018-04-26T16:13:54.020Z,4.60
2018-04-26T16:16:39.225Z,4.10
2018-04-26T16:19:24.206Z,3.70
2018-04-26T16:22:10.127Z,3.70
2018-04-26T16:24:54.228Z,3.20
2018-04-26T16:27:40.007Z,4.83
2018-04-26T16:30:20.188Z,4.20
2018-04-26T16:33:05.693Z,4.40
2018-04-26T16:35:45.118Z,4.20
2018-04-26T16:38:24.563Z,5.20
2018-04-26T16:40:51.998Z,5.30
2018-04-26T16:43:19.463Z,4.50
2018-04-26T16:45:46.938Z,6.10
2018-04-26T16:48:14.390Z,5.73
2018-04-26T16:50:41.826Z,4.93
2018-04-26T16:53:09.329Z,4.97
2018-04-26T16:55:36.774Z,6.07
2018-04-26T16:58:04.218Z,5.10
2018-04-26T17:00:31.715Z,5.50
2018-04-26T17:02:59.182Z,5.40
2018-04-26T17:05:26.627Z,5.27
2018-04-26T17:07:54.170Z,4.70
2018-04-26T17:10:21.683Z,5.13
2018-04-26T17:12:50.679Z,4.60
2018-04-26T17:15:18.282Z,4.53
2018-04-26T17:17:45.688Z,4.87
2018-04-26T17:20:13.218Z,4.60
2018-04-26T17:22:40.724Z,4.13
2018-04-26T17:25:08.253Z,4.20
2018-04-26T17:27:35.698Z,3.80
2018-04-26T17:30:03.136Z,4.23
2018-04-26T17:32:31.363Z,4.47
2018-04-26T17:34:58.841Z,4.40
2018-04-26T17:37:26.294Z,4.13
2018-04-26T17:39:53.725Z,4.30
2018-04-26T17:42:21.179Z,3.97
2018-04-26T17:44:49.390Z,3.17
2018-04-26T17:47:16.855Z,3.03
2018-04-26T17:49:44.315Z,2.63
2018-04-26T17:52:11.760Z,2.63
2018-04-26T17:54:39.288Z,3.93
2018-04-26T17:57:07.499Z,2.50
2018-04-26T17:59:34.983Z,2.80
2018-04-26T18:02:02.531Z,2.43
2018-04-26T18:04:29.976Z,2.80
2018-04-26T18:06:57.478Z,3.00
2018-04-26T18:09:25.063Z,2.40
2018-04-26T18:11:52.742Z,2.40
2018-04-26T18:14:20.968Z,8.03
2018-04-26T18:16:48.385Z,5.20
2018-04-26T18:19:16.610Z,3.90
2018-04-26T18:21:44.083Z,2.83
2018-04-26T18:24:11.522Z,2.70
2018-04-26T18:26:38.971Z,2.33
2018-04-26T18:29:06.636Z,2.70
2018-04-26T18:31:34.404Z,2.97
2018-04-26T18:34:01.880Z,2.17
2018-04-26T18:36:29.337Z,2.63
2018-04-26T18:38:56.776Z,3.50
2018-04-26T18:41:24.273Z,3.40
2018-04-26T18:43:51.820Z,2.80
2018-04-26T18:46:19.237Z,2.80
2018-04-26T18:48:46.764Z,3.17
2018-04-26T18:51:14.385Z,4.10
2018-04-26T18:53:41.991Z,4.53
2018-04-26T18:56:11.687Z,4.40
2018-04-26T18:58:39.490Z,4.80
2018-04-26T19:01:06.953Z,4.53
2018-04-26T19:03:34.520Z,3.63
2018-04-26T19:06:02.051Z,3.00
2018-04-26T19:08:29.508Z,4.23
2018-04-26T19:10:57.273Z,3.70
2018-04-26T19:13:24.706Z,3.97
2018-04-26T19:15:52.939Z,3.93
2018-04-26T19:18:20.457Z,5.90
2018-04-26T19:20:48.705Z,7.13
2018-04-26T19:23:16.251Z,8.27
2018-04-26T19:25:43.800Z,6.77
2018-04-26T19:28:11.235Z,4.37
2018-04-26T19:30:38.761Z,4.90
2018-04-26T19:33:06.196Z,6.10
2018-04-26T19:35:33.662Z,6.00
2018-04-26T19:38:01.119Z,5.70
2018-04-26T19:40:28.567Z,6.10
2018-04-26T19:42:56.054Z,4.90
2018-04-26T19:45:23.511Z,5.93
2018-04-26T19:47:50.953Z,5.70
2018-04-26T19:50:18.407Z,5.67
2018-04-26T19:52:45.838Z,6.00
2018-04-26T19:55:13.282Z,7.93
2018-04-26T19:57:41.537Z,4.77
2018-04-26T20:00:08.962Z,5.13
2018-04-26T20:02:36.403Z,4.83
2018-04-26T20:05:03.911Z,5.80
2018-04-26T20:07:31.393Z,5.50
2018-04-26T20:09:58.940Z,5.90
2018-04-26T20:12:26.380Z,5.87
2018-04-26T20:14:53.828Z,6.00
2018-04-26T20:17:21.314Z,6.10
2018-04-26T20:19:48.784Z,7.23
2018-04-26T20:22:16.222Z,7.10
2018-04-26T20:24:43.695Z,6.47
2018-04-26T20:27:11.174Z,6.57
2018-04-26T20:29:38.627Z,6.90
2018-04-26T20:32:06.067Z,6.80
2018-04-26T20:34:33.661Z,6.80
2018-04-26T20:37:01.184Z,6.97
2018-04-26T20:39:28.670Z,6.80
2018-04-26T20:41:56.349Z,7.50
2018-04-26T20:44:36.799Z,7.07
2018-04-26T20:47:04.256Z,6.63
2018-04-26T20:49:31.731Z,7.90
2018-04-26T20:51:59.171Z,8.33
2018-04-26T20:54:26.639Z,8.87
2018-04-26T20:56:54.094Z,7.70
2018-04-26T20:59:21.539Z,7.90
2018-04-26T21:01:48.989Z,7.77
2018-04-26T21:04:16.426Z,7.60
2018-04-26T21:06:44.639Z,8.13
2018-04-26T21:09:12.203Z,8.00
2018-04-26T21:11:39.575Z,8.47
2018-04-26T21:14:07.074Z,8.40
2018-04-26T21:16:34.498Z,8.00
2018-04-26T21:19:01.972Z,8.23
2018-04-26T21:21:29.439Z,8.00
2018-04-26T21:23:56.894Z,8.20
2018-04-26T21:26:24.353Z,7.67
2018-04-26T21:28:51.837Z,7.83
2018-04-26T21:31:19.395Z,8.13
2018-04-26T21:33:46.839Z,7.10
2018-04-26T21:36:14.288Z,8.27
2018-04-26T21:38:42.444Z,7.53
2018-04-26T21:41:09.891Z,8.13
2018-04-26T21:43:38.127Z,8.03
2018-04-26T21:46:05.686Z,7.87
2018-04-26T21:48:33.193Z,8.10
2018-04-26T21:51:07.157Z,7.60
2018-04-26T21:53:40.431Z,8.40
2018-04-26T21:56:13.561Z,7.70
2018-04-26T21:58:46.680Z,7.40
2018-04-26T22:01:20.550Z,8.07
2018-04-26T22:04:02.826Z,8.10
2018-04-26T22:06:30.327Z,8.93
2018-04-26T22:08:57.771Z,8.67
2018-04-26T22:11:25.239Z,8.80
2018-04-26T22:13:52.725Z,8.97
2018-04-26T22:16:20.242Z,8.50
2018-04-26T22:18:47.674Z,8.50
2018-04-26T22:21:15.119Z,8.70
2018-04-26T22:23:43.351Z,8.93
2018-04-26T22:26:10.809Z,8.47
2018-04-26T22:28:38.268Z,8.90
2018-04-26T22:31:05.714Z,8.60
2018-04-26T22:33:33.138Z,9.10
2018-04-26T22:36:01.380Z,8.60
2018-04-26T22:38:28.830Z,8.90
2018-04-26T22:40:56.284Z,8.73
2018-04-26T22:43:23.761Z,8.87
2018-04-26T22:45:51.320Z,9.23
2018-04-26T22:48:19.039Z,9.07
2018-04-26T22:50:47.266Z,9.10
2018-04-26T22:53:14.721Z,9.40
2018-04-26T22:55:42.187Z,9.43
2018-04-26T22:58:09.645Z,9.03
2018-04-26T23:00:37.099Z,8.80
2018-04-26T23:03:04.548Z,8.43
2018-04-26T23:05:32.036Z,9.50
2018-04-26T23:07:59.492Z,9.40
2018-04-26T23:10:26.918Z,9.63
2018-04-26T23:12:54.419Z,9.03
2018-04-26T23:15:21.862Z,8.67
2018-04-26T23:17:49.334Z,8.50
2018-04-26T23:20:16.794Z,9.13
2018-04-26T23:22:44.252Z,9.67
2018-04-26T23:25:11.686Z,9.30
2018-04-26T23:27:39.135Z,9.03
2018-04-26T23:30:07.437Z,9.67
2018-04-26T23:32:34.870Z,8.73
2018-04-26T23:35:03.066Z,9.37
2018-04-26T23:37:30.567Z,8.90
2018-04-26T23:39:58.006Z,9.30
2018-04-26T23:42:25.437Z,9.53
2018-04-26T23:44:53.640Z,8.67
2018-04-26T23:47:21.078Z,9.40
2018-04-26T23:49:49.346Z,8.70
2018-04-26T23:52:17.633Z,9.37
2018-04-26T23:54:45.835Z,9.57
2018-04-26T23:57:13.326Z,9.40
2018-04-26T23:59:40.763Z,10.03
